createdAt,value
2023-03-03T00:02:16.426Z,52.90
2023-03-03T00:04:44.460Z,62.00
2023-03-03T00:07:12.581Z,55.20
2023-03-03T00:09:40.499Z,45.80
2023-03-03T00:12:26.251Z,53.90
2023-03-03T00:14:54.431Z,49.80
2023-03-03T00:17:26.506Z,57.10
2023-03-03T00:19:55.265Z,47.50
2023-03-03T00:22:31.045Z,42.10
2023-03-03T00:25:29.550Z,43.00
2023-03-03T00:28:07.927Z,59.60
2023-03-03T00:30:36.068Z,46.40
2023-03-03T00:33:04.090Z,48.70
2023-03-03T00:35:37.106Z,44.90
2023-03-03T00:38:14.912Z,43.20
2023-03-03T00:40:43.166Z,48.20
2023-03-03T00:43:20.130Z,43.90
2023-03-03T00:45:52.616Z,40.90
2023-03-03T00:48:29.996Z,41.90
2023-03-03T00:50:59.461Z,37.90
2023-03-03T00:53:29.198Z,52.00
2023-03-03T00:55:57.619Z,52.10
2023-03-03T00:58:25.802Z,48.00
2023-03-03T01:00:54.751Z,40.50
2023-03-03T01:03:26.368Z,45.80
2023-03-03T01:05:55.489Z,49.70
2023-03-03T01:08:23.495Z,46.10
2023-03-03T01:10:53.277Z,53.90
2023-03-03T01:13:28.868Z,48.30
2023-03-03T01:15:56.942Z,52.60
2023-03-03T01:18:24.907Z,49.60
2023-03-03T01:20:52.868Z,57.20
2023-03-03T01:23:20.844Z,49.50
2023-03-03T01:25:48.955Z,42.90
2023-03-03T01:28:17.900Z,44.10
2023-03-03T01:30:45.899Z,53.70
2023-03-03T01:33:14.010Z,40.10
2023-03-03T01:35:46.536Z,47.50
2023-03-03T01:38:15.548Z,52.10
2023-03-03T01:40:43.568Z,50.90
2023-03-03T01:43:15.173Z,39.60
2023-03-03T01:46:06.244Z,35.90
2023-03-03T01:48:39.098Z,40.80
2023-03-03T01:51:17.282Z,33.60
2023-03-03T01:53:50.042Z,38.80
2023-03-03T01:56:18.075Z,41.00
2023-03-03T01:58:51.507Z,43.10
2023-03-03T02:01:22.175Z,44.10
2023-03-03T02:03:50.812Z,31.80
2023-03-03T02:06:21.823Z,46.20
2023-03-03T02:08:57.186Z,41.60
2023-03-03T02:11:25.366Z,44.90
2023-03-03T02:13:53.760Z,46.30
2023-03-03T02:16:21.974Z,39.70
2023-03-03T02:18:50.120Z,40.10
2023-03-03T02:21:20.631Z,42.10
2023-03-03T02:24:07.717Z,40.50
2023-03-03T02:26:37.490Z,42.30
2023-03-03T02:29:06.296Z,46.60
2023-03-03T02:31:34.263Z,45.30
2023-03-03T02:34:02.261Z,29.30
2023-03-03T02:36:32.129Z,37.70
2023-03-03T02:39:03.631Z,27.90
2023-03-03T02:41:45.922Z,26.90
2023-03-03T02:44:16.152Z,30.20
2023-03-03T02:46:47.176Z,34.90
2023-03-03T02:49:19.298Z,30.90
2023-03-03T02:51:47.531Z,33.70
2023-03-03T02:54:16.377Z,34.10
2023-03-03T02:56:44.546Z,37.00
2023-03-03T02:59:12.554Z,29.90
2023-03-03T03:01:44.693Z,31.80
2023-03-03T03:04:22.899Z,32.00
2023-03-03T03:06:52.501Z,34.70
2023-03-03T03:09:21.492Z,28.60
2023-03-03T03:11:50.844Z,37.20
2023-03-03T03:14:21.362Z,30.20
2023-03-03T03:16:49.685Z,34.60
2023-03-03T03:19:17.724Z,31.30
2023-03-03T03:21:45.977Z,33.20
2023-03-03T03:24:14.031Z,30.00
2023-03-03T03:26:46.062Z,30.00
2023-03-03T03:29:14.214Z,30.60
2023-03-03T03:31:43.986Z,35.00
2023-03-03T03:34:11.952Z,24.30
2023-03-03T03:36:40.256Z,22.40
2023-03-03T03:39:08.840Z,21.40
2023-03-03T03:41:39.830Z,27.50
2023-03-03T03:44:07.756Z,27.90
2023-03-03T03:46:35.723Z,33.10
2023-03-03T03:49:03.794Z,32.70
2023-03-03T03:51:31.916Z,22.60
2023-03-03T03:54:00.500Z,29.20
2023-03-03T03:56:28.727Z,32.10
2023-03-03T03:58:57.483Z,28.20
2023-03-03T04:01:26.825Z,30.80
2023-03-03T04:03:55.399Z,26.00
2023-03-03T04:06:24.634Z,28.00
2023-03-03T04:08:53.345Z,33.90
2023-03-03T04:11:23.126Z,26.20
2023-03-03T04:13:51.245Z,31.70
2023-03-03T04:16:19.449Z,30.70
2023-03-03T04:18:47.607Z,27.10
2023-03-03T04:21:16.688Z,29.90
2023-03-03T04:23:45.800Z,23.50
2023-03-03T04:26:14.225Z,34.90
2023-03-03T04:28:43.032Z,26.10
2023-03-03T04:31:11.914Z,34.80
2023-03-03T04:33:39.991Z,32.50
2023-03-03T04:36:09.140Z,23.90
2023-03-03T04:38:37.141Z,23.10
2023-03-03T04:41:05.474Z,25.50
2023-03-03T04:43:35.568Z,28.60
2023-03-03T04:46:04.685Z,26.00
2023-03-03T04:48:33.406Z,22.90
2023-03-03T04:51:01.583Z,29.00
2023-03-03T04:53:29.757Z,37.60
2023-03-03T04:55:58.041Z,30.10
2023-03-03T04:58:26.932Z,29.40
2023-03-03T05:00:55.863Z,22.80
2023-03-03T05:03:25.216Z,28.70
2023-03-03T05:05:53.378Z,25.40
2023-03-03T05:08:21.557Z,23.00
2023-03-03T05:10:54.149Z,26.20
2023-03-03T05:13:22.394Z,9.10
2023-03-03T05:15:55.719Z,11.80
2023-03-03T05:18:24.246Z,21.00
2023-03-03T05:20:52.580Z,6.70
2023-03-03T05:23:21.304Z,22.60
2023-03-03T05:25:49.513Z,21.10
2023-03-03T05:28:17.598Z,21.00
2023-03-03T05:30:46.085Z,19.00
2023-03-03T05:33:15.029Z,17.50
2023-03-03T05:35:43.212Z,23.20
2023-03-03T05:38:11.524Z,17.30
2023-03-03T05:40:40.138Z,19.80
2023-03-03T05:43:08.062Z,23.80
2023-03-03T05:45:36.014Z,21.10
2023-03-03T05:48:05.052Z,21.90
2023-03-03T05:50:33.336Z,20.40
2023-03-03T05:53:01.246Z,23.00
2023-03-03T05:55:29.208Z,25.50
2023-03-03T05:57:57.151Z,25.40
2023-03-03T06:00:25.092Z,16.60
2023-03-03T06:02:53.320Z,16.50
2023-03-03T06:05:21.367Z,16.10
2023-03-03T06:07:49.476Z,45.20
2023-03-03T06:10:17.647Z,28.50
2023-03-03T06:12:46.561Z,22.80
2023-03-03T06:15:14.617Z,14.30
2023-03-03T06:17:42.699Z,21.70
2023-03-03T06:20:11.390Z,22.90
2023-03-03T06:22:39.418Z,32.40
2023-03-03T06:25:07.818Z,33.30
2023-03-03T06:27:35.817Z,26.90
2023-03-03T06:30:04.216Z,18.80
2023-03-03T06:32:32.290Z,16.50
2023-03-03T06:35:00.351Z,22.30
2023-03-03T06:37:28.491Z,12.40
2023-03-03T06:39:56.471Z,31.90
2023-03-03T06:42:24.994Z,24.70
2023-03-03T06:44:53.047Z,24.90
2023-03-03T06:47:21.195Z,25.20
2023-03-03T06:49:49.279Z,18.90
2023-03-03T06:52:25.578Z,27.40
2023-03-03T06:54:58.403Z,33.40
2023-03-03T06:57:29.198Z,17.70
2023-03-03T07:00:06.684Z,27.90
2023-03-03T07:02:34.894Z,19.70
2023-03-03T07:05:03.101Z,15.00
2023-03-03T07:07:31.227Z,24.60
2023-03-03T07:09:59.356Z,19.70
2023-03-03T07:12:29.490Z,23.40
2023-03-03T07:15:17.953Z,15.50
2023-03-03T07:17:50.928Z,18.20
2023-03-03T07:20:24.175Z,12.30
2023-03-03T07:22:52.255Z,18.10
2023-03-03T07:25:23.713Z,11.50
2023-03-03T07:27:51.603Z,18.40
2023-03-03T07:30:27.510Z,16.40
2023-03-03T07:32:57.650Z,17.50
2023-03-03T07:35:41.595Z,19.90
2023-03-03T07:38:24.813Z,8.20
2023-03-03T07:40:54.476Z,9.90
2023-03-03T07:43:34.061Z,12.10
2023-03-03T07:46:06.913Z,16.90
2023-03-03T07:48:42.511Z,14.60
2023-03-03T07:51:17.313Z,10.30
2023-03-03T07:53:45.473Z,9.00
2023-03-03T07:56:35.678Z,10.60
2023-03-03T07:59:16.887Z,12.40
2023-03-03T08:01:45.093Z,13.50
2023-03-03T08:04:41.533Z,13.00
2023-03-03T08:07:20.076Z,13.50
2023-03-03T08:09:59.167Z,7.90
2023-03-03T08:12:42.271Z,6.50
2023-03-03T08:15:12.608Z,9.50
2023-03-03T08:17:42.106Z,13.60
2023-03-03T08:20:44.624Z,10.00
2023-03-03T08:23:13.385Z,14.60
2023-03-03T08:25:42.564Z,11.20
2023-03-03T08:28:10.837Z,7.50
2023-03-03T08:30:39.196Z,7.30
2023-03-03T08:33:07.252Z,11.00
2023-03-03T08:35:35.444Z,12.10
2023-03-03T08:38:03.882Z,8.60
2023-03-03T08:40:32.261Z,8.40
2023-03-03T08:43:00.293Z,13.20
2023-03-03T08:45:28.585Z,13.90
2023-03-03T08:47:56.875Z,12.60
2023-03-03T08:50:25.068Z,10.80
2023-03-03T08:52:53.362Z,11.00
2023-03-03T08:55:21.585Z,13.90
2023-03-03T08:57:49.908Z,14.60
2023-03-03T09:00:18.306Z,9.50
2023-03-03T09:02:46.632Z,13.70
2023-03-03T09:05:14.895Z,13.80
2023-03-03T09:07:43.280Z,11.70
2023-03-03T09:10:12.746Z,14.00
2023-03-03T09:12:43.215Z,12.30
2023-03-03T09:15:49.481Z,12.60
2023-03-03T09:18:22.801Z,12.10
2023-03-03T09:20:54.283Z,11.50
2023-03-03T09:23:38.283Z,13.90
2023-03-03T09:26:18.941Z,12.50
2023-03-03T09:28:46.983Z,11.00
2023-03-03T09:31:28.567Z,8.60
2023-03-03T09:33:59.580Z,8.60
2023-03-03T09:36:38.342Z,11.10
2023-03-03T09:39:21.653Z,11.50
2023-03-03T09:42:16.035Z,15.70
2023-03-03T09:44:56.523Z,12.80
2023-03-03T09:47:56.184Z,14.00
2023-03-03T09:50:49.231Z,13.50
2023-03-03T09:53:39.910Z,13.60
2023-03-03T09:56:08.184Z,13.50
2023-03-03T09:58:46.317Z,12.10
2023-03-03T10:01:36.582Z,15.70
2023-03-03T10:04:23.770Z,14.00
2023-03-03T10:07:10.504Z,13.50
2023-03-03T10:09:58.104Z,16.70
2023-03-03T10:12:31.578Z,12.80
2023-03-03T10:15:10.993Z,14.30
2023-03-03T10:17:48.582Z,15.10
2023-03-03T10:20:56.111Z,12.10
2023-03-03T10:23:45.651Z,11.80
2023-03-03T10:26:44.680Z,11.50
2023-03-03T10:29:34.609Z,14.40
2023-03-03T10:32:26.726Z,14.30
2023-03-03T10:35:14.146Z,9.20
2023-03-03T10:38:14.837Z,13.90
2023-03-03T10:40:48.937Z,13.50
2023-03-03T10:43:32.263Z,12.90
2023-03-03T10:46:13.097Z,23.00
2023-03-03T10:49:06.494Z,14.30
2023-03-03T10:51:47.891Z,19.80
2023-03-03T10:54:38.911Z,11.80
2023-03-03T10:57:31.444Z,15.20
2023-03-03T11:00:16.822Z,15.70
2023-03-03T11:03:00.725Z,12.00
2023-03-03T11:05:48.710Z,15.80
2023-03-03T11:08:21.211Z,17.20
2023-03-03T11:11:00.100Z,14.40
2023-03-03T11:13:48.206Z,15.00
2023-03-03T11:16:54.895Z,17.00
2023-03-03T11:19:39.178Z,16.40
2023-03-03T11:22:10.244Z,14.10
2023-03-03T11:24:47.576Z,18.10
2023-03-03T11:27:15.567Z,12.40
2023-03-03T11:30:08.614Z,15.20
2023-03-03T11:32:42.547Z,21.20
2023-03-03T11:35:30.618Z,14.50
2023-03-03T11:38:01.290Z,22.80
2023-03-03T11:40:33.085Z,19.30
2023-03-03T11:43:33.726Z,17.20
2023-03-03T11:46:10.014Z,15.40
2023-03-03T11:49:07.313Z,22.30
2023-03-03T11:51:35.286Z,18.50
2023-03-03T11:54:42.452Z,14.30
2023-03-03T11:57:17.006Z,15.80
2023-03-03T11:59:56.572Z,19.00
2023-03-03T12:02:32.370Z,14.50
2023-03-03T12:05:23.948Z,15.90
2023-03-03T12:08:01.738Z,14.80
2023-03-03T12:10:34.311Z,21.90
2023-03-03T12:13:14.814Z,16.90
2023-03-03T12:15:51.978Z,19.70
2023-03-03T12:18:32.265Z,19.40
2023-03-03T12:21:22.407Z,13.60
2023-03-03T12:23:58.166Z,19.40
2023-03-03T12:26:47.657Z,29.80
2023-03-03T12:29:40.585Z,27.70
2023-03-03T12:32:24.086Z,21.30
2023-03-03T12:34:58.658Z,24.00
2023-03-03T12:37:34.602Z,18.70
2023-03-03T12:40:11.415Z,22.60
2023-03-03T12:43:01.281Z,20.00
2023-03-03T12:45:33.284Z,19.70
2023-03-03T12:48:22.327Z,12.90
2023-03-03T12:51:25.453Z,15.00
2023-03-03T12:54:36.847Z,17.30
2023-03-03T12:57:29.911Z,16.10
2023-03-03T13:00:36.619Z,16.70
2023-03-03T13:03:18.482Z,18.40
2023-03-03T13:06:16.395Z,19.50
2023-03-03T13:08:57.312Z,14.30
2023-03-03T13:11:25.328Z,16.10
2023-03-03T13:14:02.771Z,14.20
2023-03-03T13:17:00.229Z,13.40
2023-03-03T13:19:46.932Z,34.40
2023-03-03T13:22:44.778Z,15.40
2023-03-03T13:25:50.733Z,53.50
2023-03-03T13:28:23.481Z,18.10
2023-03-03T13:30:56.044Z,12.90
2023-03-03T13:33:29.025Z,16.00
2023-03-03T13:36:00.218Z,16.80
2023-03-03T13:38:33.191Z,18.60
2023-03-03T13:41:05.564Z,14.60
2023-03-03T13:43:52.243Z,13.30
2023-03-03T13:46:39.012Z,17.40
2023-03-03T13:49:19.947Z,15.20
2023-03-03T13:52:08.860Z,16.90
2023-03-03T13:54:36.814Z,14.90
2023-03-03T13:57:29.342Z,10.90
2023-03-03T14:00:02.497Z,13.20
2023-03-03T14:02:52.385Z,16.80
2023-03-03T14:05:35.447Z,35.30
2023-03-03T14:08:27.462Z,13.10
2023-03-03T14:10:58.605Z,15.90
2023-03-03T14:13:39.109Z,14.20
2023-03-03T14:16:36.247Z,41.50
2023-03-03T14:19:43.269Z,13.80
2023-03-03T14:22:26.044Z,12.30
2023-03-03T14:25:06.475Z,13.50
2023-03-03T14:28:09.957Z,14.70
2023-03-03T14:30:39.241Z,14.80
2023-03-03T14:33:10.303Z,14.20
2023-03-03T14:35:39.304Z,12.90
2023-03-03T14:38:18.573Z,16.70
2023-03-03T14:40:47.351Z,17.00
2023-03-03T14:43:27.098Z,14.90
2023-03-03T14:45:55.326Z,17.80
2023-03-03T14:48:25.232Z,11.60
2023-03-03T14:51:16.720Z,14.30
2023-03-03T14:53:46.095Z,15.10
2023-03-03T14:56:15.516Z,12.60
2023-03-03T14:58:43.664Z,17.70
2023-03-03T15:01:23.819Z,12.10
2023-03-03T15:04:03.509Z,15.10
2023-03-03T15:06:33.937Z,14.20
2023-03-03T15:09:35.860Z,13.00
2023-03-03T15:12:17.412Z,14.70
2023-03-03T15:14:49.704Z,15.00
2023-03-03T15:17:23.847Z,15.80
2023-03-03T15:20:09.318Z,15.30
2023-03-03T15:23:06.093Z,13.40
2023-03-03T15:25:43.965Z,14.20
2023-03-03T15:28:28.470Z,16.30
2023-03-03T15:31:14.863Z,17.30
2023-03-03T15:34:20.537Z,13.10
2023-03-03T15:36:53.475Z,15.40
2023-03-03T15:39:40.033Z,14.50
2023-03-03T15:42:15.076Z,16.50
2023-03-03T15:45:02.989Z,16.60
2023-03-03T15:47:49.798Z,18.40
2023-03-03T15:50:27.086Z,20.50
2023-03-03T15:53:14.402Z,17.40
2023-03-03T15:56:03.359Z,19.10
2023-03-03T15:58:50.267Z,17.60
2023-03-03T16:01:30.614Z,14.30
2023-03-03T16:04:19.299Z,16.80
2023-03-03T16:06:59.127Z,19.50
2023-03-03T16:09:57.372Z,22.90
2023-03-03T16:12:35.553Z,19.10
2023-03-03T16:15:18.373Z,14.60
2023-03-03T16:17:46.369Z,16.60
2023-03-03T16:20:27.578Z,18.00
2023-03-03T16:23:14.014Z,23.60
2023-03-03T16:25:59.199Z,29.00
2023-03-03T16:28:51.986Z,20.70
2023-03-03T16:31:25.451Z,33.80
2023-03-03T16:34:12.494Z,23.50
2023-03-03T16:37:01.805Z,22.90
2023-03-03T16:39:48.270Z,25.60
2023-03-03T16:42:30.765Z,35.70
2023-03-03T16:45:21.822Z,24.80
2023-03-03T16:48:10.862Z,23.90
2023-03-03T16:50:38.829Z,24.00
2023-03-03T16:53:26.429Z,19.60
2023-03-03T16:56:14.499Z,19.20
2023-03-03T16:59:11.484Z,20.50
2023-03-03T17:02:04.543Z,17.50
2023-03-03T17:04:51.220Z,21.90
2023-03-03T17:07:40.694Z,21.20
2023-03-03T17:10:27.568Z,26.90
2023-03-03T17:13:20.617Z,22.70
2023-03-03T17:16:10.308Z,23.60
2023-03-03T17:18:53.148Z,26.00
2023-03-03T17:21:28.382Z,27.30
2023-03-03T17:24:20.288Z,23.80
2023-03-03T17:27:03.901Z,28.80
2023-03-03T17:30:10.364Z,30.40
2023-03-03T17:33:15.241Z,26.90
2023-03-03T17:35:49.140Z,30.70
2023-03-03T17:38:42.778Z,33.00
2023-03-03T17:41:13.460Z,27.10
2023-03-03T17:44:06.746Z,27.70
2023-03-03T17:46:55.157Z,29.50
2023-03-03T17:49:51.066Z,29.40
2023-03-03T17:52:34.785Z,27.30
2023-03-03T17:55:12.094Z,28.10
2023-03-03T17:57:59.213Z,28.40
2023-03-03T18:00:42.403Z,30.30
2023-03-03T18:03:35.739Z,28.60
2023-03-03T18:06:31.963Z,28.60
2023-03-03T18:09:14.096Z,18.80
2023-03-03T18:12:14.197Z,26.30
2023-03-03T18:15:10.894Z,29.70
2023-03-03T18:18:06.001Z,22.20
2023-03-03T18:20:47.094Z,30.90
2023-03-03T18:23:34.173Z,20.80
2023-03-03T18:26:03.753Z,27.80
2023-03-03T18:28:47.974Z,17.00
2023-03-03T18:31:26.523Z,28.80
2023-03-03T18:34:20.040Z,22.10
2023-03-03T18:36:53.692Z,23.20
2023-03-03T18:39:46.244Z,27.70
2023-03-03T18:42:17.117Z,28.50
2023-03-03T18:44:45.317Z,24.70
2023-03-03T18:47:14.794Z,25.90
2023-03-03T18:50:10.520Z,21.50
2023-03-03T18:52:38.570Z,22.20
2023-03-03T18:55:12.128Z,25.10
2023-03-03T18:57:40.073Z,23.10
2023-03-03T19:00:27.601Z,23.50
2023-03-03T19:02:57.221Z,26.10
2023-03-03T19:05:36.516Z,20.60
2023-03-03T19:08:16.881Z,26.00
2023-03-03T19:11:11.023Z,24.90
2023-03-03T19:13:41.374Z,28.60
2023-03-03T19:16:24.553Z,26.20
2023-03-03T19:18:52.507Z,30.30
2023-03-03T19:21:29.391Z,24.30
2023-03-03T19:24:25.621Z,29.90
2023-03-03T19:26:53.672Z,25.30
2023-03-03T19:29:27.652Z,26.20
2023-03-03T19:32:15.240Z,24.50
2023-03-03T19:35:19.920Z,26.70
2023-03-03T19:38:23.249Z,28.40
2023-03-03T19:41:09.005Z,26.30
2023-03-03T19:43:56.342Z,22.30
2023-03-03T19:47:12.101Z,22.90
2023-03-03T19:49:42.938Z,21.80
2023-03-03T19:52:38.001Z,27.20
2023-03-03T19:55:21.125Z,24.40
2023-03-03T19:58:07.854Z,23.60
2023-03-03T20:00:42.611Z,28.00
2023-03-03T20:03:31.309Z,25.20
2023-03-03T20:06:05.478Z,31.70
2023-03-03T20:08:41.686Z,26.60
2023-03-03T20:11:49.027Z,26.40
2023-03-03T20:14:35.962Z,28.40
2023-03-03T20:17:38.349Z,27.00
2023-03-03T20:20:15.371Z,32.40
2023-03-03T20:22:43.397Z,29.40
2023-03-03T20:25:48.103Z,22.10
2023-03-03T20:28:37.708Z,27.30
2023-03-03T20:31:11.860Z,25.20
2023-03-03T20:34:02.065Z,22.70
2023-03-03T20:36:39.535Z,25.20
2023-03-03T20:39:35.642Z,27.90
2023-03-03T20:42:42.680Z,28.40
2023-03-03T20:45:35.121Z,26.40
2023-03-03T20:48:21.752Z,30.10
2023-03-03T20:51:08.530Z,29.60
2023-03-03T20:53:36.538Z,24.10
2023-03-03T20:56:36.972Z,27.80
2023-03-03T20:59:08.583Z,29.30
2023-03-03T21:01:40.368Z,28.90
2023-03-03T21:04:29.136Z,22.70
2023-03-03T21:06:57.931Z,22.00
2023-03-03T21:09:27.579Z,25.80
2023-03-03T21:11:56.113Z,25.70
2023-03-03T21:14:29.145Z,28.70
2023-03-03T21:16:59.514Z,29.40
2023-03-03T21:19:36.631Z,26.50
2023-03-03T21:22:04.686Z,25.00
2023-03-03T21:24:52.176Z,24.70
2023-03-03T21:27:26.899Z,20.80
2023-03-03T21:30:11.112Z,22.40
2023-03-03T21:32:40.298Z,26.90
2023-03-03T21:35:16.223Z,23.90
2023-03-03T21:37:45.548Z,22.20
2023-03-03T21:40:23.444Z,24.40
2023-03-03T21:42:56.097Z,25.30
2023-03-03T21:45:24.372Z,25.50
2023-03-03T21:47:53.704Z,25.10
2023-03-03T21:50:21.620Z,20.90
2023-03-03T21:52:49.623Z,22.80
2023-03-03T21:55:17.547Z,27.50
2023-03-03T21:57:45.483Z,22.50
2023-03-03T22:00:13.776Z,28.20
2023-03-03T22:02:41.726Z,26.00
2023-03-03T22:05:10.069Z,23.80
2023-03-03T22:07:38.076Z,27.20
2023-03-03T22:10:07.555Z,18.90
2023-03-03T22:12:35.444Z,22.80
2023-03-03T22:15:03.522Z,25.40
2023-03-03T22:17:31.551Z,23.30
2023-03-03T22:19:59.851Z,30.60
2023-03-03T22:22:27.815Z,26.60
2023-03-03T22:24:55.798Z,28.80
2023-03-03T22:27:23.790Z,25.30
2023-03-03T22:29:51.742Z,26.50
2023-03-03T22:32:19.645Z,28.20
2023-03-03T22:34:47.692Z,26.50
2023-03-03T22:37:15.722Z,24.70
2023-03-03T22:39:43.677Z,27.00
2023-03-03T22:42:11.581Z,30.90
2023-03-03T22:44:40.347Z,31.90
2023-03-03T22:47:08.295Z,28.20
2023-03-03T22:49:36.182Z,26.70
2023-03-03T22:52:04.147Z,25.30
2023-03-03T22:54:32.117Z,25.60
2023-03-03T22:57:00.068Z,30.20
2023-03-03T22:59:28.270Z,27.00
2023-03-03T23:01:56.313Z,26.60
2023-03-03T23:04:24.348Z,25.90
2023-03-03T23:06:52.265Z,23.80
2023-03-03T23:09:20.261Z,29.70
2023-03-03T23:11:48.253Z,20.80
2023-03-03T23:14:16.183Z,26.80
2023-03-03T23:16:45.560Z,27.60
2023-03-03T23:19:13.581Z,24.70
2023-03-03T23:21:41.484Z,26.00
2023-03-03T23:24:11.170Z,27.60
2023-03-03T23:26:39.050Z,26.00
2023-03-03T23:29:06.971Z,25.40
2023-03-03T23:31:34.912Z,24.30
2023-03-03T23:34:02.856Z,24.60
2023-03-03T23:36:30.790Z,22.30
2023-03-03T23:38:58.744Z,27.70
2023-03-03T23:41:26.697Z,25.40
2023-03-03T23:43:54.694Z,18.80
2023-03-03T23:46:22.784Z,26.30
2023-03-03T23:48:50.813Z,28.90
2023-03-03T23:51:18.709Z,20.90
2023-03-03T23:53:46.610Z,18.90
2023-03-03T23:56:14.519Z,21.80
2023-03-03T23:58:42.351Z,22.80
